Mount Vernon, Virginia
Current Conditions -  °F | °C
As of 10:58 AM on Friday 28 Nov 2014 (Local Time) from KDAA Reporting Station
Scattered Clouds Scattered Clouds  
Wind Chill: -2°   Ceiling: Unl
Heat Index:   Visibility: 10mi
Dew Point: -7°   Wind: 15mph
Humidity: 47%   Direction: 290°WNW
Pressure: 30.32"   Gusts: NA
Location:  38.71°N, 77.08°W
Report Text: KDAA 281558Z AUTO 29013KT 10SM SCT046 03/M07 A3032 RMK AO2 SLP271 T00331072
Loading
Personal Weather Stations






























Interactive Weather Map New forecast layout! Learn more

10-Day Weather Forecast

Advertisements
Track Severe Weather on mobile